sensor_id;sensor_type;location;lat;lon;timestamp;temperature;humidity
4461;DHT22;2243;48.812;9.232;2023-05-29T00:01:31;16.00;96.60
4461;DHT22;2243;48.812;9.232;2023-05-29T00:04:02;16.00;96.40
4461;DHT22;2243;48.812;9.232;2023-05-29T00:06:33;15.80;96.60
4461;DHT22;2243;48.812;9.232;2023-05-29T00:09:04;15.70;96.80
4461;DHT22;2243;48.812;9.232;2023-05-29T00:11:35;15.70;96.70
4461;DHT22;2243;48.812;9.232;2023-05-29T00:14:06;15.80;96.80
4461;DHT22;2243;48.812;9.232;2023-05-29T00:16:37;15.80;96.90
4461;DHT22;2243;48.812;9.232;2023-05-29T00:19:08;15.70;96.90
4461;DHT22;2243;48.812;9.232;2023-05-29T00:21:40;15.70;97.00
4461;DHT22;2243;48.812;9.232;2023-05-29T00:24:11;15.70;97.10
4461;DHT22;2243;48.812;9.232;2023-05-29T00:26:42;15.70;97.30
4461;DHT22;2243;48.812;9.232;2023-05-29T00:29:13;15.50;97.30
4461;DHT22;2243;48.812;9.232;2023-05-29T00:31:46;15.40;97.80
4461;DHT22;2243;48.812;9.232;2023-05-29T00:34:17;15.40;97.80
4461;DHT22;2243;48.812;9.232;2023-05-29T00:36:48;15.40;97.70
4461;DHT22;2243;48.812;9.232;2023-05-29T00:39:19;15.40;97.90
4461;DHT22;2243;48.812;9.232;2023-05-29T00:41:50;15.30;98.10
4461;DHT22;2243;48.812;9.232;2023-05-29T00:44:22;15.30;98.30
4461;DHT22;2243;48.812;9.232;2023-05-29T00:46:53;15.30;98.30
4461;DHT22;2243;48.812;9.232;2023-05-29T00:49:24;15.20;98.30
4461;DHT22;2243;48.812;9.232;2023-05-29T00:51:56;15.10;98.40
4461;DHT22;2243;48.812;9.232;2023-05-29T00:54:29;15.20;98.40
4461;DHT22;2243;48.812;9.232;2023-05-29T00:57:01;15.20;98.60
4461;DHT22;2243;48.812;9.232;2023-05-29T00:59:34;15.20;98.30
4461;DHT22;2243;48.812;9.232;2023-05-29T01:02:05;15.10;98.40
4461;DHT22;2243;48.812;9.232;2023-05-29T01:04:36;15.00;98.60
4461;DHT22;2243;48.812;9.232;2023-05-29T01:07:08;15.00;98.70
4461;DHT22;2243;48.812;9.232;2023-05-29T01:09:40;15.10;98.50
4461;DHT22;2243;48.812;9.232;2023-05-29T01:12:26;15.00;98.80
4461;DHT22;2243;48.812;9.232;2023-05-29T01:15:33;15.00;98.90
4461;DHT22;2243;48.812;9.232;2023-05-29T01:18:39;15.00;98.80
4461;DHT22;2243;48.812;9.232;2023-05-29T01:21:22;15.00;98.80
4461;DHT22;2243;48.812;9.232;2023-05-29T01:24:03;14.80;99.10
4461;DHT22;2243;48.812;9.232;2023-05-29T01:26:55;14.80;99.30
4461;DHT22;2243;48.812;9.232;2023-05-29T01:29:30;14.80;99.40
4461;DHT22;2243;48.812;9.232;2023-05-29T01:32:03;14.80;99.50
4461;DHT22;2243;48.812;9.232;2023-05-29T01:34:35;14.80;99.50
4461;DHT22;2243;48.812;9.232;2023-05-29T01:37:06;14.60;99.50
4461;DHT22;2243;48.812;9.232;2023-05-29T01:39:37;14.60;99.50
4461;DHT22;2243;48.812;9.232;2023-05-29T01:42:09;14.40;99.80
4461;DHT22;2243;48.812;9.232;2023-05-29T01:44:40;14.30;99.90
4461;DHT22;2243;48.812;9.232;2023-05-29T01:47:12;14.30;99.90
4461;DHT22;2243;48.812;9.232;2023-05-29T01:49:44;14.40;99.90
4461;DHT22;2243;48.812;9.232;2023-05-29T01:52:15;14.30;99.90
4461;DHT22;2243;48.812;9.232;2023-05-29T01:54:46;14.20;99.90
4461;DHT22;2243;48.812;9.232;2023-05-29T01:57:17;14.20;99.90
4461;DHT22;2243;48.812;9.232;2023-05-29T01:59:49;14.10;99.90
4461;DHT22;2243;48.812;9.232;2023-05-29T02:02:22;14.10;99.90
4461;DHT22;2243;48.812;9.232;2023-05-29T02:04:56;14.10;99.90
4461;DHT22;2243;48.812;9.232;2023-05-29T02:07:27;14.10;99.90
4461;DHT22;2243;48.812;9.232;2023-05-29T02:09:58;14.00;99.90
4461;DHT22;2243;48.812;9.232;2023-05-29T02:12:29;13.90;99.90
4461;DHT22;2243;48.812;9.232;2023-05-29T02:15:00;13.70;99.90
4461;DHT22;2243;48.812;9.232;2023-05-29T02:17:31;13.60;99.90
4461;DHT22;2243;48.812;9.232;2023-05-29T02:20:02;13.60;99.90
4461;DHT22;2243;48.812;9.232;2023-05-29T02:22:35;13.60;99.90
4461;DHT22;2243;48.812;9.232;2023-05-29T02:25:06;13.60;99.90
4461;DHT22;2243;48.812;9.232;2023-05-29T02:27:37;13.40;99.90
4461;DHT22;2243;48.812;9.232;2023-05-29T02:30:09;13.30;99.90
4461;DHT22;2243;48.812;9.232;2023-05-29T02:32:40;13.20;99.90
4461;DHT22;2243;48.812;9.232;2023-05-29T02:35:11;13.20;99.90
4461;DHT22;2243;48.812;9.232;2023-05-29T02:37:45;13.00;99.90
4461;DHT22;2243;48.812;9.232;2023-05-29T02:40:18;13.10;99.90
4461;DHT22;2243;48.812;9.232;2023-05-29T02:42:50;13.10;99.90
4461;DHT22;2243;48.812;9.232;2023-05-29T02:45:21;13.10;99.90
4461;DHT22;2243;48.812;9.232;2023-05-29T02:47:52;13.10;99.90
4461;DHT22;2243;48.812;9.232;2023-05-29T02:50:23;13.10;99.90
4461;DHT22;2243;48.812;9.232;2023-05-29T02:52:54;13.10;99.90
4461;DHT22;2243;48.812;9.232;2023-05-29T02:55:25;13.20;99.90
4461;DHT22;2243;48.812;9.232;2023-05-29T02:57:56;13.20;99.90
4461;DHT22;2243;48.812;9.232;2023-05-29T03:00:27;13.20;99.90
4461;DHT22;2243;48.812;9.232;2023-05-29T03:02:59;13.00;99.90
4461;DHT22;2243;48.812;9.232;2023-05-29T03:05:31;13.00;99.90
4461;DHT22;2243;48.812;9.232;2023-05-29T03:08:02;12.90;99.90
4461;DHT22;2243;48.812;9.232;2023-05-29T03:10:33;12.80;99.90
4461;DHT22;2243;48.812;9.232;2023-05-29T03:13:06;12.90;99.90
4461;DHT22;2243;48.812;9.232;2023-05-29T03:15:37;13.00;99.90
4461;DHT22;2243;48.812;9.232;2023-05-29T03:18:08;13.00;99.90
4461;DHT22;2243;48.812;9.232;2023-05-29T03:20:39;13.10;99.90
4461;DHT22;2243;48.812;9.232;2023-05-29T03:23:10;13.00;99.90
4461;DHT22;2243;48.812;9.232;2023-05-29T03:25:41;13.00;99.90
4461;DHT22;2243;48.812;9.232;2023-05-29T03:28:12;13.00;99.90
4461;DHT22;2243;48.812;9.232;2023-05-29T03:30:43;12.90;99.90
4461;DHT22;2243;48.812;9.232;2023-05-29T03:33:14;13.00;99.90
4461;DHT22;2243;48.812;9.232;2023-05-29T03:35:45;12.90;99.90
4461;DHT22;2243;48.812;9.232;2023-05-29T03:38:15;12.80;99.90
4461;DHT22;2243;48.812;9.232;2023-05-29T03:40:46;12.80;99.90
4461;DHT22;2243;48.812;9.232;2023-05-29T03:43:18;12.70;99.90
4461;DHT22;2243;48.812;9.232;2023-05-29T03:45:49;12.70;99.90
4461;DHT22;2243;48.812;9.232;2023-05-29T03:48:20;12.60;99.90
4461;DHT22;2243;48.812;9.232;2023-05-29T03:50:51;12.60;99.90
4461;DHT22;2243;48.812;9.232;2023-05-29T03:53:22;12.60;99.90
4461;DHT22;2243;48.812;9.232;2023-05-29T03:55:53;12.50;99.90
4461;DHT22;2243;48.812;9.232;2023-05-29T03:58:24;12.50;99.90
4461;DHT22;2243;48.812;9.232;2023-05-29T04:00:55;12.40;99.90
4461;DHT22;2243;48.812;9.232;2023-05-29T04:03:26;12.40;99.90
4461;DHT22;2243;48.812;9.232;2023-05-29T04:05:58;12.30;99.90
4461;DHT22;2243;48.812;9.232;2023-05-29T04:08:28;12.20;99.90
4461;DHT22;2243;48.812;9.232;2023-05-29T04:11:00;12.30;99.90
4461;DHT22;2243;48.812;9.232;2023-05-29T04:13:31;12.50;99.90
4461;DHT22;2243;48.812;9.232;2023-05-29T04:16:03;12.50;99.90
4461;DHT22;2243;48.812;9.232;2023-05-29T04:18:34;12.50;99.90
4461;DHT22;2243;48.812;9.232;2023-05-29T04:21:05;12.70;99.90
4461;DHT22;2243;48.812;9.232;2023-05-29T04:23:36;12.80;99.90
4461;DHT22;2243;48.812;9.232;2023-05-29T04:26:07;12.70;99.90
4461;DHT22;2243;48.812;9.232;2023-05-29T04:28:39;12.80;99.90
4461;DHT22;2243;48.812;9.232;2023-05-29T04:31:10;12.80;99.90
4461;DHT22;2243;48.812;9.232;2023-05-29T04:33:45;12.80;99.90
4461;DHT22;2243;48.812;9.232;2023-05-29T04:36:16;12.80;99.90
4461;DHT22;2243;48.812;9.232;2023-05-29T04:38:47;12.90;99.90
4461;DHT22;2243;48.812;9.232;2023-05-29T04:41:18;12.90;99.90
4461;DHT22;2243;48.812;9.232;2023-05-29T04:43:50;13.00;99.90
4461;DHT22;2243;48.812;9.232;2023-05-29T04:46:26;13.10;99.90
4461;DHT22;2243;48.812;9.232;2023-05-29T04:48:57;13.20;99.90
4461;DHT22;2243;48.812;9.232;2023-05-29T04:51:29;13.30;99.90
4461;DHT22;2243;48.812;9.232;2023-05-29T04:54:01;13.40;99.90
4461;DHT22;2243;48.812;9.232;2023-05-29T04:56:32;13.50;99.90
4461;DHT22;2243;48.812;9.232;2023-05-29T04:59:03;13.50;99.90
4461;DHT22;2243;48.812;9.232;2023-05-29T05:01:34;13.50;99.90
4461;DHT22;2243;48.812;9.232;2023-05-29T05:04:05;13.60;99.90
4461;DHT22;2243;48.812;9.232;2023-05-29T05:06:36;13.80;99.90
4461;DHT22;2243;48.812;9.232;2023-05-29T05:09:08;13.80;99.90
4461;DHT22;2243;48.812;9.232;2023-05-29T05:11:39;13.90;99.90
4461;DHT22;2243;48.812;9.232;2023-05-29T05:14:10;14.00;99.90
4461;DHT22;2243;48.812;9.232;2023-05-29T05:16:41;14.00;99.90
4461;DHT22;2243;48.812;9.232;2023-05-29T05:19:12;14.10;99.90
4461;DHT22;2243;48.812;9.232;2023-05-29T05:21:43;14.20;99.90
4461;DHT22;2243;48.812;9.232;2023-05-29T05:24:14;14.20;99.90
4461;DHT22;2243;48.812;9.232;2023-05-29T05:26:45;14.30;99.90
4461;DHT22;2243;48.812;9.232;2023-05-29T05:29:16;14.30;99.90
4461;DHT22;2243;48.812;9.232;2023-05-29T05:31:47;14.30;99.90
4461;DHT22;2243;48.812;9.232;2023-05-29T05:34:18;14.40;99.90
4461;DHT22;2243;48.812;9.232;2023-05-29T05:36:49;14.50;99.90
4461;DHT22;2243;48.812;9.232;2023-05-29T05:39:20;14.60;99.90
4461;DHT22;2243;48.812;9.232;2023-05-29T05:41:51;14.70;99.90
4461;DHT22;2243;48.812;9.232;2023-05-29T05:44:22;14.80;99.90
4461;DHT22;2243;48.812;9.232;2023-05-29T05:46:53;14.90;99.90
4461;DHT22;2243;48.812;9.232;2023-05-29T05:49:25;15.00;99.90
4461;DHT22;2243;48.812;9.232;2023-05-29T05:51:56;15.10;99.90
4461;DHT22;2243;48.812;9.232;2023-05-29T05:54:27;15.20;99.90
4461;DHT22;2243;48.812;9.232;2023-05-29T05:56:58;15.30;99.90
4461;DHT22;2243;48.812;9.232;2023-05-29T05:59:29;15.40;99.90
4461;DHT22;2243;48.812;9.232;2023-05-29T06:02:00;15.40;99.90
4461;DHT22;2243;48.812;9.232;2023-05-29T06:04:31;15.50;99.90
4461;DHT22;2243;48.812;9.232;2023-05-29T06:07:02;15.60;99.90
4461;DHT22;2243;48.812;9.232;2023-05-29T06:09:33;15.80;99.90
4461;DHT22;2243;48.812;9.232;2023-05-29T06:12:04;15.90;99.90
4461;DHT22;2243;48.812;9.232;2023-05-29T06:14:38;16.00;99.80
4461;DHT22;2243;48.812;9.232;2023-05-29T06:17:09;16.10;99.60
4461;DHT22;2243;48.812;9.232;2023-05-29T06:19:40;16.10;99.00
4461;DHT22;2243;48.812;9.232;2023-05-29T06:22:11;16.30;99.20
4461;DHT22;2243;48.812;9.232;2023-05-29T06:24:42;16.20;99.10
4461;DHT22;2243;48.812;9.232;2023-05-29T06:27:13;16.30;99.00
4461;DHT22;2243;48.812;9.232;2023-05-29T06:29:44;16.40;98.70
4461;DHT22;2243;48.812;9.232;2023-05-29T06:32:15;16.50;98.80
4461;DHT22;2243;48.812;9.232;2023-05-29T06:34:46;16.50;98.80
4461;DHT22;2243;48.812;9.232;2023-05-29T06:37:17;16.60;98.50
4461;DHT22;2243;48.812;9.232;2023-05-29T06:39:48;16.70;98.50
4461;DHT22;2243;48.812;9.232;2023-05-29T06:42:20;16.80;98.30
4461;DHT22;2243;48.812;9.232;2023-05-29T06:44:51;17.00;98.20
4461;DHT22;2243;48.812;9.232;2023-05-29T06:47:22;17.10;98.50
4461;DHT22;2243;48.812;9.232;2023-05-29T06:49:53;16.90;98.70
4461;DHT22;2243;48.812;9.232;2023-05-29T06:52:24;17.10;98.60
4461;DHT22;2243;48.812;9.232;2023-05-29T06:54:55;17.20;98.50
4461;DHT22;2243;48.812;9.232;2023-05-29T06:57:27;17.20;98.40
4461;DHT22;2243;48.812;9.232;2023-05-29T06:59:58;17.30;98.40
4461;DHT22;2243;48.812;9.232;2023-05-29T07:02:29;17.40;98.50
4461;DHT22;2243;48.812;9.232;2023-05-29T07:05:00;17.50;98.50
4461;DHT22;2243;48.812;9.232;2023-05-29T07:07:31;17.60;98.30
4461;DHT22;2243;48.812;9.232;2023-05-29T07:10:02;17.60;98.80
4461;DHT22;2243;48.812;9.232;2023-05-29T07:12:33;17.70;98.10
4461;DHT22;2243;48.812;9.232;2023-05-29T07:15:05;17.80;97.70
4461;DHT22;2243;48.812;9.232;2023-05-29T07:17:36;18.00;98.20
4461;DHT22;2243;48.812;9.232;2023-05-29T07:20:08;18.10;97.20
4461;DHT22;2243;48.812;9.232;2023-05-29T07:22:39;18.20;96.70
4461;DHT22;2243;48.812;9.232;2023-05-29T07:25:10;18.20;97.00
4461;DHT22;2243;48.812;9.232;2023-05-29T07:27:41;18.20;96.70
4461;DHT22;2243;48.812;9.232;2023-05-29T07:30:12;18.30;96.20
4461;DHT22;2243;48.812;9.232;2023-05-29T07:32:44;18.30;96.00
4461;DHT22;2243;48.812;9.232;2023-05-29T07:35:15;18.40;95.80
4461;DHT22;2243;48.812;9.232;2023-05-29T07:37:46;18.50;95.90
4461;DHT22;2243;48.812;9.232;2023-05-29T07:40:18;18.60;95.50
4461;DHT22;2243;48.812;9.232;2023-05-29T07:42:50;18.70;95.50
4461;DHT22;2243;48.812;9.232;2023-05-29T07:45:22;18.80;95.10
4461;DHT22;2243;48.812;9.232;2023-05-29T07:47:54;18.90;94.70
4461;DHT22;2243;48.812;9.232;2023-05-29T07:50:25;18.80;94.40
4461;DHT22;2243;48.812;9.232;2023-05-29T07:52:56;18.90;94.10
4461;DHT22;2243;48.812;9.232;2023-05-29T07:55:27;18.90;93.80
4461;DHT22;2243;48.812;9.232;2023-05-29T07:57:58;19.00;94.10
4461;DHT22;2243;48.812;9.232;2023-05-29T08:00:30;19.10;94.90
4461;DHT22;2243;48.812;9.232;2023-05-29T08:03:01;19.20;95.20
4461;DHT22;2243;48.812;9.232;2023-05-29T08:05:33;19.30;94.50
4461;DHT22;2243;48.812;9.232;2023-05-29T08:08:04;19.30;94.30
4461;DHT22;2243;48.812;9.232;2023-05-29T08:10:36;19.40;94.00
4461;DHT22;2243;48.812;9.232;2023-05-29T08:13:07;19.60;93.80
4461;DHT22;2243;48.812;9.232;2023-05-29T08:15:38;19.70;93.80
4461;DHT22;2243;48.812;9.232;2023-05-29T08:18:09;19.70;94.50
4461;DHT22;2243;48.812;9.232;2023-05-29T08:20:40;19.80;94.60
4461;DHT22;2243;48.812;9.232;2023-05-29T08:23:11;19.80;94.10
4461;DHT22;2243;48.812;9.232;2023-05-29T08:25:42;19.80;94.50
4461;DHT22;2243;48.812;9.232;2023-05-29T08:28:14;19.90;94.00
4461;DHT22;2243;48.812;9.232;2023-05-29T08:30:45;20.00;94.10
4461;DHT22;2243;48.812;9.232;2023-05-29T08:33:16;20.10;94.00
4461;DHT22;2243;48.812;9.232;2023-05-29T08:35:47;20.20;94.20
4461;DHT22;2243;48.812;9.232;2023-05-29T08:38:19;20.20;93.80
4461;DHT22;2243;48.812;9.232;2023-05-29T08:40:51;20.20;93.70
4461;DHT22;2243;48.812;9.232;2023-05-29T08:43:23;20.40;93.80
4461;DHT22;2243;48.812;9.232;2023-05-29T08:45:58;20.40;93.90
4461;DHT22;2243;48.812;9.232;2023-05-29T08:48:31;20.50;93.50
4461;DHT22;2243;48.812;9.232;2023-05-29T08:51:02;20.60;93.40
4461;DHT22;2243;48.812;9.232;2023-05-29T08:53:34;20.60;93.50
4461;DHT22;2243;48.812;9.232;2023-05-29T08:56:06;20.70;93.60
4461;DHT22;2243;48.812;9.232;2023-05-29T08:58:38;20.90;94.10
4461;DHT22;2243;48.812;9.232;2023-05-29T09:01:09;21.00;93.80
4461;DHT22;2243;48.812;9.232;2023-05-29T09:03:41;21.00;93.40
4461;DHT22;2243;48.812;9.232;2023-05-29T09:06:12;21.10;93.70
4461;DHT22;2243;48.812;9.232;2023-05-29T09:08:43;21.20;93.50
4461;DHT22;2243;48.812;9.232;2023-05-29T09:11:15;21.20;93.00
4461;DHT22;2243;48.812;9.232;2023-05-29T09:13:46;21.30;92.70
4461;DHT22;2243;48.812;9.232;2023-05-29T09:16:17;21.40;92.90
4461;DHT22;2243;48.812;9.232;2023-05-29T09:18:48;21.50;92.90
4461;DHT22;2243;48.812;9.232;2023-05-29T09:21:27;21.50;92.70
4461;DHT22;2243;48.812;9.232;2023-05-29T09:24:03;21.70;92.70
4461;DHT22;2243;48.812;9.232;2023-05-29T09:26:37;21.70;92.40
4461;DHT22;2243;48.812;9.232;2023-05-29T09:29:09;21.80;92.00
4461;DHT22;2243;48.812;9.232;2023-05-29T09:31:45;21.90;91.40
4461;DHT22;2243;48.812;9.232;2023-05-29T09:34:26;21.90;91.30
4461;DHT22;2243;48.812;9.232;2023-05-29T09:37:02;22.00;91.70
4461;DHT22;2243;48.812;9.232;2023-05-29T09:42:13;22.20;90.80
4461;DHT22;2243;48.812;9.232;2023-05-29T09:44:48;22.20;90.50
4461;DHT22;2243;48.812;9.232;2023-05-29T09:47:22;22.20;90.70
4461;DHT22;2243;48.812;9.232;2023-05-29T09:49:53;22.20;90.40
4461;DHT22;2243;48.812;9.232;2023-05-29T09:52:26;22.20;90.60
4461;DHT22;2243;48.812;9.232;2023-05-29T09:55:01;22.20;90.80
4461;DHT22;2243;48.812;9.232;2023-05-29T09:57:33;22.40;90.00
4461;DHT22;2243;48.812;9.232;2023-05-29T10:00:05;22.50;90.10
4461;DHT22;2243;48.812;9.232;2023-05-29T10:02:44;22.60;88.80
4461;DHT22;2243;48.812;9.232;2023-05-29T10:05:16;22.60;87.60
4461;DHT22;2243;48.812;9.232;2023-05-29T10:07:49;22.70;87.70
4461;DHT22;2243;48.812;9.232;2023-05-29T10:10:25;22.60;86.80
4461;DHT22;2243;48.812;9.232;2023-05-29T10:12:57;22.70;86.00
4461;DHT22;2243;48.812;9.232;2023-05-29T10:15:28;22.80;83.70
4461;DHT22;2243;48.812;9.232;2023-05-29T10:18:07;22.90;84.60
4461;DHT22;2243;48.812;9.232;2023-05-29T10:20:44;23.10;83.40
4461;DHT22;2243;48.812;9.232;2023-05-29T10:23:16;23.30;82.00
4461;DHT22;2243;48.812;9.232;2023-05-29T10:25:54;23.40;81.50
4461;DHT22;2243;48.812;9.232;2023-05-29T10:28:32;23.50;81.20
4461;DHT22;2243;48.812;9.232;2023-05-29T10:31:08;23.60;79.30
4461;DHT22;2243;48.812;9.232;2023-05-29T10:36:38;23.80;80.30
4461;DHT22;2243;48.812;9.232;2023-05-29T10:39:15;23.90;79.50
4461;DHT22;2243;48.812;9.232;2023-05-29T10:41:46;24.00;80.10
4461;DHT22;2243;48.812;9.232;2023-05-29T10:44:46;24.10;79.70
4461;DHT22;2243;48.812;9.232;2023-05-29T10:47:23;24.10;80.30
4461;DHT22;2243;48.812;9.232;2023-05-29T10:49:59;24.20;80.40
4461;DHT22;2243;48.812;9.232;2023-05-29T10:52:34;24.30;80.80
4461;DHT22;2243;48.812;9.232;2023-05-29T10:55:06;24.40;79.00
4461;DHT22;2243;48.812;9.232;2023-05-29T10:57:46;24.40;77.20
4461;DHT22;2243;48.812;9.232;2023-05-29T11:00:18;24.40;77.20
4461;DHT22;2243;48.812;9.232;2023-05-29T11:02:52;24.50;77.00
4461;DHT22;2243;48.812;9.232;2023-05-29T11:05:23;24.60;77.70
4461;DHT22;2243;48.812;9.232;2023-05-29T11:07:57;24.50;76.70
4461;DHT22;2243;48.812;9.232;2023-05-29T11:10:56;24.60;76.70
4461;DHT22;2243;48.812;9.232;2023-05-29T11:13:37;24.70;76.10
4461;DHT22;2243;48.812;9.232;2023-05-29T11:18:57;25.20;76.60
4461;DHT22;2243;48.812;9.232;2023-05-29T11:21:49;25.80;73.90
4461;DHT22;2243;48.812;9.232;2023-05-29T11:24:28;26.50;72.60
4461;DHT22;2243;48.812;9.232;2023-05-29T11:27:00;27.80;69.60
4461;DHT22;2243;48.812;9.232;2023-05-29T11:29:37;28.40;67.40
4461;DHT22;2243;48.812;9.232;2023-05-29T11:32:13;28.80;66.40
4461;DHT22;2243;48.812;9.232;2023-05-29T11:34:46;29.30;65.90
4461;DHT22;2243;48.812;9.232;2023-05-29T11:37:18;29.70;64.50
4461;DHT22;2243;48.812;9.232;2023-05-29T11:39:51;28.90;63.30
4461;DHT22;2243;48.812;9.232;2023-05-29T11:42:22;28.50;65.00
4461;DHT22;2243;48.812;9.232;2023-05-29T11:45:10;28.70;60.60
4461;DHT22;2243;48.812;9.232;2023-05-29T11:50:31;28.90;59.30
4461;DHT22;2243;48.812;9.232;2023-05-29T11:53:06;28.90;58.10
4461;DHT22;2243;48.812;9.232;2023-05-29T11:55:38;28.60;59.70
4461;DHT22;2243;48.812;9.232;2023-05-29T11:58:09;28.30;60.80
4461;DHT22;2243;48.812;9.232;2023-05-29T12:00:40;28.40;60.60
4461;DHT22;2243;48.812;9.232;2023-05-29T12:03:14;28.30;59.80
4461;DHT22;2243;48.812;9.232;2023-05-29T12:05:47;28.10;61.60
4461;DHT22;2243;48.812;9.232;2023-05-29T12:08:26;28.20;60.00
4461;DHT22;2243;48.812;9.232;2023-05-29T12:10:58;28.10;60.40
4461;DHT22;2243;48.812;9.232;2023-05-29T12:13:29;28.20;60.70
4461;DHT22;2243;48.812;9.232;2023-05-29T12:16:04;28.20;60.00
4461;DHT22;2243;48.812;9.232;2023-05-29T12:18:35;28.50;59.50
4461;DHT22;2243;48.812;9.232;2023-05-29T12:21:06;28.50;58.90
4461;DHT22;2243;48.812;9.232;2023-05-29T12:23:37;28.40;58.20
4461;DHT22;2243;48.812;9.232;2023-05-29T12:26:09;28.40;58.10
4461;DHT22;2243;48.812;9.232;2023-05-29T12:28:46;28.20;57.70
4461;DHT22;2243;48.812;9.232;2023-05-29T12:31:28;28.20;57.80
4461;DHT22;2243;48.812;9.232;2023-05-29T12:34:02;28.40;58.30
4461;DHT22;2243;48.812;9.232;2023-05-29T12:36:41;28.40;59.10
4461;DHT22;2243;48.812;9.232;2023-05-29T12:39:13;28.50;57.60
4461;DHT22;2243;48.812;9.232;2023-05-29T12:41:47;28.70;55.90
4461;DHT22;2243;48.812;9.232;2023-05-29T12:44:18;28.50;54.50
4461;DHT22;2243;48.812;9.232;2023-05-29T12:46:56;28.30;55.70
4461;DHT22;2243;48.812;9.232;2023-05-29T12:49:28;28.70;55.50
4461;DHT22;2243;48.812;9.232;2023-05-29T12:52:05;28.90;55.00
4461;DHT22;2243;48.812;9.232;2023-05-29T12:54:42;28.90;54.80
4461;DHT22;2243;48.812;9.232;2023-05-29T12:57:13;28.90;54.70
4461;DHT22;2243;48.812;9.232;2023-05-29T12:59:44;28.70;54.50
4461;DHT22;2243;48.812;9.232;2023-05-29T13:02:15;28.60;53.70
4461;DHT22;2243;48.812;9.232;2023-05-29T13:04:47;28.60;54.90
4461;DHT22;2243;48.812;9.232;2023-05-29T13:07:18;28.80;55.80
4461;DHT22;2243;48.812;9.232;2023-05-29T13:09:49;29.10;55.00
4461;DHT22;2243;48.812;9.232;2023-05-29T13:12:20;29.20;55.00
4461;DHT22;2243;48.812;9.232;2023-05-29T13:14:51;29.20;54.60
4461;DHT22;2243;48.812;9.232;2023-05-29T13:17:23;29.20;53.80
4461;DHT22;2243;48.812;9.232;2023-05-29T13:19:54;29.20;53.70
4461;DHT22;2243;48.812;9.232;2023-05-29T13:22:25;29.10;54.10
4461;DHT22;2243;48.812;9.232;2023-05-29T13:25:01;29.30;54.70
4461;DHT22;2243;48.812;9.232;2023-05-29T13:27:33;29.20;54.20
4461;DHT22;2243;48.812;9.232;2023-05-29T13:30:06;29.50;53.70
4461;DHT22;2243;48.812;9.232;2023-05-29T13:32:38;29.60;52.30
4461;DHT22;2243;48.812;9.232;2023-05-29T13:35:09;29.70;54.20
4461;DHT22;2243;48.812;9.232;2023-05-29T13:37:40;29.70;53.30
4461;DHT22;2243;48.812;9.232;2023-05-29T13:40:11;29.70;52.80
4461;DHT22;2243;48.812;9.232;2023-05-29T13:42:44;29.70;53.30
4461;DHT22;2243;48.812;9.232;2023-05-29T13:45:15;29.80;53.80
4461;DHT22;2243;48.812;9.232;2023-05-29T13:47:46;29.80;53.90
4461;DHT22;2243;48.812;9.232;2023-05-29T13:50:17;30.00;53.70
4461;DHT22;2243;48.812;9.232;2023-05-29T13:52:48;30.00;53.00
4461;DHT22;2243;48.812;9.232;2023-05-29T13:55:19;30.00;53.20
4461;DHT22;2243;48.812;9.232;2023-05-29T13:57:50;30.20;53.30
4461;DHT22;2243;48.812;9.232;2023-05-29T14:00:21;30.30;53.30
4461;DHT22;2243;48.812;9.232;2023-05-29T14:02:52;30.20;52.70
4461;DHT22;2243;48.812;9.232;2023-05-29T14:05:23;30.30;52.80
4461;DHT22;2243;48.812;9.232;2023-05-29T14:07:54;30.10;53.40
4461;DHT22;2243;48.812;9.232;2023-05-29T14:10:25;30.10;53.20
4461;DHT22;2243;48.812;9.232;2023-05-29T14:12:56;30.20;52.60
4461;DHT22;2243;48.812;9.232;2023-05-29T14:15:27;30.00;52.40
4461;DHT22;2243;48.812;9.232;2023-05-29T14:17:58;30.00;51.80
4461;DHT22;2243;48.812;9.232;2023-05-29T14:20:30;30.00;53.50
4461;DHT22;2243;48.812;9.232;2023-05-29T14:23:01;30.10;52.80
4461;DHT22;2243;48.812;9.232;2023-05-29T14:25:32;30.10;53.30
4461;DHT22;2243;48.812;9.232;2023-05-29T14:28:03;30.20;52.80
4461;DHT22;2243;48.812;9.232;2023-05-29T14:30:34;30.20;53.30
4461;DHT22;2243;48.812;9.232;2023-05-29T14:33:05;30.10;53.10
4461;DHT22;2243;48.812;9.232;2023-05-29T14:35:37;30.00;53.90
4461;DHT22;2243;48.812;9.232;2023-05-29T14:38:08;30.10;53.80
4461;DHT22;2243;48.812;9.232;2023-05-29T14:40:38;29.80;53.50
4461;DHT22;2243;48.812;9.232;2023-05-29T14:43:10;29.90;55.30
4461;DHT22;2243;48.812;9.232;2023-05-29T14:45:41;30.10;55.00
4461;DHT22;2243;48.812;9.232;2023-05-29T14:48:12;30.50;52.50
4461;DHT22;2243;48.812;9.232;2023-05-29T14:50:42;30.80;52.50
4461;DHT22;2243;48.812;9.232;2023-05-29T14:53:13;30.90;52.90
4461;DHT22;2243;48.812;9.232;2023-05-29T14:55:44;30.90;52.10
4461;DHT22;2243;48.812;9.232;2023-05-29T14:58:16;30.80;52.80
4461;DHT22;2243;48.812;9.232;2023-05-29T15:00:47;30.60;52.30
4461;DHT22;2243;48.812;9.232;2023-05-29T15:03:18;30.50;53.60
4461;DHT22;2243;48.812;9.232;2023-05-29T15:05:49;30.80;53.30
4461;DHT22;2243;48.812;9.232;2023-05-29T15:08:20;30.70;53.30
4461;DHT22;2243;48.812;9.232;2023-05-29T15:10:52;30.80;53.50
4461;DHT22;2243;48.812;9.232;2023-05-29T15:13:23;30.60;53.70
4461;DHT22;2243;48.812;9.232;2023-05-29T15:15:55;30.60;54.50
4461;DHT22;2243;48.812;9.232;2023-05-29T15:18:30;31.00;53.70
4461;DHT22;2243;48.812;9.232;2023-05-29T15:21:01;30.80;53.10
4461;DHT22;2243;48.812;9.232;2023-05-29T15:23:33;31.00;53.00
4461;DHT22;2243;48.812;9.232;2023-05-29T15:26:06;31.00;52.80
4461;DHT22;2243;48.812;9.232;2023-05-29T15:28:37;31.10;52.70
4461;DHT22;2243;48.812;9.232;2023-05-29T15:31:08;30.90;53.30
4461;DHT22;2243;48.812;9.232;2023-05-29T15:33:39;30.60;54.00
4461;DHT22;2243;48.812;9.232;2023-05-29T15:36:11;30.60;53.50
4461;DHT22;2243;48.812;9.232;2023-05-29T15:38:43;30.60;53.30
4461;DHT22;2243;48.812;9.232;2023-05-29T15:41:13;30.50;53.10
4461;DHT22;2243;48.812;9.232;2023-05-29T15:43:45;30.80;52.80
4461;DHT22;2243;48.812;9.232;2023-05-29T15:46:16;30.70;52.70
4461;DHT22;2243;48.812;9.232;2023-05-29T15:48:47;30.90;52.40
4461;DHT22;2243;48.812;9.232;2023-05-29T15:51:18;31.20;52.70
4461;DHT22;2243;48.812;9.232;2023-05-29T15:53:49;31.20;52.70
4461;DHT22;2243;48.812;9.232;2023-05-29T15:56:20;31.20;52.40
4461;DHT22;2243;48.812;9.232;2023-05-29T15:58:57;31.30;52.60
4461;DHT22;2243;48.812;9.232;2023-05-29T16:01:28;31.40;51.80
4461;DHT22;2243;48.812;9.232;2023-05-29T16:03:59;31.20;51.60
4461;DHT22;2243;48.812;9.232;2023-05-29T16:06:31;31.00;52.10
4461;DHT22;2243;48.812;9.232;2023-05-29T16:09:03;31.10;52.20
4461;DHT22;2243;48.812;9.232;2023-05-29T16:11:34;31.00;51.70
4461;DHT22;2243;48.812;9.232;2023-05-29T16:14:05;30.90;51.50
4461;DHT22;2243;48.812;9.232;2023-05-29T16:16:37;31.00;51.60
4461;DHT22;2243;48.812;9.232;2023-05-29T16:19:09;30.80;52.70
4461;DHT22;2243;48.812;9.232;2023-05-29T16:21:40;30.90;52.10
4461;DHT22;2243;48.812;9.232;2023-05-29T16:24:11;31.00;51.90
4461;DHT22;2243;48.812;9.232;2023-05-29T16:26:43;31.10;51.20
4461;DHT22;2243;48.812;9.232;2023-05-29T16:29:14;30.80;51.50
4461;DHT22;2243;48.812;9.232;2023-05-29T16:31:46;30.80;51.50
4461;DHT22;2243;48.812;9.232;2023-05-29T16:34:17;30.90;51.60
4461;DHT22;2243;48.812;9.232;2023-05-29T16:36:48;30.90;51.30
4461;DHT22;2243;48.812;9.232;2023-05-29T16:39:19;30.80;51.40
4461;DHT22;2243;48.812;9.232;2023-05-29T16:41:52;30.80;51.10
4461;DHT22;2243;48.812;9.232;2023-05-29T16:44:23;30.80;51.50
4461;DHT22;2243;48.812;9.232;2023-05-29T16:46:54;31.00;51.50